createdAt,value
2022-12-24T00:00:58.695Z,95483.84
2022-12-24T00:03:25.323Z,95471.94
2022-12-24T00:05:51.916Z,95485.47
2022-12-24T00:08:18.517Z,95488.72
2022-12-24T00:10:45.220Z,95474.06
2022-12-24T00:13:11.763Z,95472.31
2022-12-24T00:15:38.239Z,95481.22
2022-12-24T00:18:04.790Z,95487.00
2022-12-24T00:20:31.342Z,95477.16
2022-12-24T00:22:57.865Z,95471.34
2022-12-24T00:25:24.372Z,95478.41
2022-12-24T00:27:50.882Z,95481.78
2022-12-24T00:30:17.386Z,95484.38
2022-12-24T00:32:43.964Z,95491.00
2022-12-24T00:35:10.435Z,95503.25
2022-12-24T00:37:36.887Z,95508.06
2022-12-24T00:40:03.633Z,95506.97
2022-12-24T00:42:30.139Z,95512.53
2022-12-24T00:44:56.666Z,95523.94
2022-12-24T00:47:23.151Z,95528.41
2022-12-24T00:49:49.713Z,95534.84
2022-12-24T00:52:26.429Z,95540.00
2022-12-24T00:54:52.943Z,95554.69
2022-12-24T00:57:19.415Z,95547.91
2022-12-24T00:59:45.922Z,95542.63
2022-12-24T01:02:12.496Z,95552.50
2022-12-24T01:04:57.844Z,95549.91
2022-12-24T01:07:24.311Z,95550.13
2022-12-24T01:09:50.847Z,95571.69
2022-12-24T01:12:17.317Z,95583.88
2022-12-24T01:14:43.766Z,95567.50
2022-12-24T01:17:10.233Z,95579.25
2022-12-24T01:19:36.686Z,95584.84
2022-12-24T01:22:03.139Z,95584.03
2022-12-24T01:24:29.583Z,95578.88
2022-12-24T01:26:56.076Z,95580.13
2022-12-24T01:29:22.547Z,95575.66
2022-12-24T01:31:49.064Z,95571.47
2022-12-24T01:34:15.534Z,95577.56
2022-12-24T01:36:41.988Z,95576.16
2022-12-24T01:39:08.458Z,95580.00
2022-12-24T01:42:10.576Z,95577.03
2022-12-24T01:44:40.166Z,95584.75
2022-12-24T01:47:12.734Z,95577.03
2022-12-24T01:49:42.808Z,95586.69
2022-12-24T01:52:10.336Z,95583.97
2022-12-24T01:54:38.403Z,95586.13
2022-12-24T01:57:05.594Z,95587.72
2022-12-24T01:59:32.239Z,95595.13
2022-12-24T02:01:58.876Z,95600.28
2022-12-24T02:04:37.382Z,95592.63
2022-12-24T02:07:03.926Z,95590.91
2022-12-24T02:09:30.356Z,95592.41
2022-12-24T02:11:56.835Z,95609.59
2022-12-24T02:14:23.348Z,95613.13
2022-12-24T02:16:53.327Z,95621.81
2022-12-24T02:19:19.738Z,95627.63
2022-12-24T02:22:06.897Z,95637.09
2022-12-24T02:24:33.300Z,95633.59
2022-12-24T02:27:12.812Z,95639.69
2022-12-24T02:29:42.320Z,95657.28
2022-12-24T02:32:14.845Z,95660.38
2022-12-24T02:34:44.302Z,95653.44
2022-12-24T02:37:12.640Z,95662.13
2022-12-24T02:39:42.164Z,95665.53
2022-12-24T02:42:08.977Z,95667.78
2022-12-24T02:44:39.905Z,95663.78
2022-12-24T02:47:06.574Z,95673.13
2022-12-24T02:49:33.091Z,95662.22
2022-12-24T02:51:59.614Z,95663.72
2022-12-24T02:54:26.095Z,95671.44
2022-12-24T02:57:00.649Z,95679.31
2022-12-24T02:59:45.509Z,95684.97
2022-12-24T03:02:26.218Z,95678.84
2022-12-24T03:05:11.619Z,95666.66
2022-12-24T03:07:39.478Z,95668.41
2022-12-24T03:10:08.980Z,95666.81
2022-12-24T03:12:42.850Z,95672.75
2022-12-24T03:15:09.595Z,95673.22
2022-12-24T03:17:37.134Z,95673.66
2022-12-24T03:20:04.121Z,95670.09
2022-12-24T03:22:30.633Z,95668.34
2022-12-24T03:24:57.219Z,95664.16
2022-12-24T03:27:25.725Z,95649.94
2022-12-24T03:29:52.216Z,95658.97
2022-12-24T03:32:30.369Z,95656.38
2022-12-24T03:34:57.095Z,95663.31
2022-12-24T03:37:23.659Z,95671.03
2022-12-24T03:39:50.151Z,95673.28
2022-12-24T03:42:16.586Z,95676.66
2022-12-24T03:44:43.074Z,95674.09
2022-12-24T03:47:09.584Z,95686.69
2022-12-24T03:49:36.068Z,95676.38
2022-12-24T03:52:02.534Z,95673.81
2022-12-24T03:54:29.064Z,95673.00
2022-12-24T03:56:55.553Z,95672.03
2022-12-24T03:59:22.031Z,95661.09
2022-12-24T04:01:48.559Z,95670.88
2022-12-24T04:04:15.141Z,95670.22
2022-12-24T04:06:41.629Z,95670.81
2022-12-24T04:09:08.882Z,95662.56
2022-12-24T04:11:35.349Z,95674.50
2022-12-24T04:14:01.797Z,95679.13
2022-12-24T04:16:28.335Z,95690.69
2022-12-24T04:18:54.813Z,95680.69
2022-12-24T04:21:21.266Z,95694.53
2022-12-24T04:23:48.131Z,95690.97
2022-12-24T04:26:14.589Z,95693.72
2022-12-24T04:28:41.419Z,95699.03
2022-12-24T04:31:12.042Z,95700.09
2022-12-24T04:33:38.546Z,95706.53
2022-12-24T04:36:05.433Z,95705.72
2022-12-24T04:38:32.099Z,95710.03
2022-12-24T04:40:59.471Z,95708.41
2022-12-24T04:43:26.334Z,95709.53
2022-12-24T04:45:52.842Z,95714.00
2022-12-24T04:48:19.292Z,95719.16
2022-12-24T04:50:45.798Z,95720.91
2022-12-24T04:53:14.978Z,95716.94
2022-12-24T04:55:47.667Z,95723.44
2022-12-24T04:58:14.178Z,95723.00
2022-12-24T05:00:40.846Z,95729.75
2022-12-24T05:03:07.297Z,95732.72
2022-12-24T05:05:33.778Z,95736.09
2022-12-24T05:08:00.266Z,95740.94
2022-12-24T05:10:26.748Z,95744.03
2022-12-24T05:12:53.424Z,95743.88
2022-12-24T05:15:19.924Z,95751.59
2022-12-24T05:17:46.387Z,95750.00
2022-12-24T05:20:12.877Z,95757.56
2022-12-24T05:22:58.063Z,95753.09
2022-12-24T05:25:50.707Z,95758.91
2022-12-24T05:28:17.177Z,95760.38
2022-12-24T05:30:43.763Z,95766.34
2022-12-24T05:33:10.240Z,95782.28
2022-12-24T05:35:36.748Z,95780.53
2022-12-24T05:38:03.261Z,95789.91
2022-12-24T05:40:29.774Z,95788.94
2022-12-24T05:42:56.235Z,95782.28
2022-12-24T05:45:22.822Z,95781.69
2022-12-24T05:47:49.355Z,95789.31
2022-12-24T05:50:15.783Z,95788.34
2022-12-24T05:52:42.260Z,95795.25
2022-12-24T05:55:09.328Z,95791.03
2022-12-24T05:57:36.006Z,95798.13
2022-12-24T06:00:02.562Z,95801.00
2022-12-24T06:02:29.087Z,95805.09
2022-12-24T06:04:55.731Z,95806.06
2022-12-24T06:07:22.236Z,95806.50
2022-12-24T06:09:48.696Z,95812.91
2022-12-24T06:12:15.149Z,95816.88
2022-12-24T06:14:41.615Z,95823.13
2022-12-24T06:17:08.056Z,95828.16
2022-12-24T06:19:34.707Z,95826.50
2022-12-24T06:22:01.188Z,95830.84
2022-12-24T06:24:27.630Z,95831.97
2022-12-24T06:26:54.198Z,95841.31
2022-12-24T06:29:20.648Z,95844.84
2022-12-24T06:31:47.129Z,95848.22
2022-12-24T06:34:13.629Z,95844.03
2022-12-24T06:36:40.224Z,95850.94
2022-12-24T06:39:06.671Z,95851.22
2022-12-24T06:41:33.231Z,95853.56
2022-12-24T06:43:59.881Z,95854.53
2022-12-24T06:46:26.490Z,95858.06
2022-12-24T06:48:55.131Z,95862.63
2022-12-24T06:51:21.841Z,95865.78
2022-12-24T06:53:50.570Z,95862.41
2022-12-24T06:56:17.127Z,95874.16
2022-12-24T06:58:43.747Z,95874.00
2022-12-24T07:01:11.103Z,95873.34
2022-12-24T07:03:37.680Z,95872.53
2022-12-24T07:06:04.407Z,95874.00
2022-12-24T07:08:33.720Z,95877.69
2022-12-24T07:11:00.280Z,95899.25
2022-12-24T07:13:26.774Z,95898.44
2022-12-24T07:15:59.941Z,95881.34
2022-12-24T07:18:26.510Z,95890.56
2022-12-24T07:20:53.005Z,95890.16
2022-12-24T07:23:19.472Z,95893.44
2022-12-24T07:25:46.018Z,95901.97
2022-12-24T07:28:12.616Z,95912.94
2022-12-24T07:30:39.089Z,95910.19
2022-12-24T07:33:06.058Z,95912.78
2022-12-24T07:35:32.552Z,95918.47
2022-12-24T07:37:59.019Z,95917.41
2022-12-24T07:40:25.581Z,95916.97
2022-12-24T07:42:52.060Z,95924.69
2022-12-24T07:45:18.578Z,95924.56
2022-12-24T07:47:45.149Z,95923.88
2022-12-24T07:50:11.824Z,95926.88
2022-12-24T07:52:38.293Z,95932.03
2022-12-24T07:55:04.874Z,95934.50
2022-12-24T07:57:31.311Z,95939.19
2022-12-24T07:59:57.819Z,95945.03
2022-12-24T08:02:24.491Z,95950.69
2022-12-24T08:04:51.062Z,95948.09
2022-12-24T08:07:17.533Z,95951.41
2022-12-24T08:09:46.105Z,95957.66
2022-12-24T08:12:12.700Z,95954.94
2022-12-24T08:14:39.180Z,95955.03
2022-12-24T08:17:05.723Z,95959.34
2022-12-24T08:19:32.154Z,95962.97
2022-12-24T08:21:58.630Z,95967.13
2022-12-24T08:24:25.142Z,95968.16
2022-12-24T08:26:51.632Z,95963.25
2022-12-24T08:29:18.198Z,95978.66
2022-12-24T08:31:44.734Z,95968.81
2022-12-24T08:34:11.195Z,95964.03
2022-12-24T08:36:37.617Z,95965.56
2022-12-24T08:39:04.298Z,95975.88
2022-12-24T08:41:31.295Z,95972.44
2022-12-24T08:43:57.800Z,95975.22
2022-12-24T08:46:25.452Z,95983.69
2022-12-24T08:48:51.941Z,95995.19
2022-12-24T08:51:19.285Z,95993.63
2022-12-24T08:53:45.870Z,95997.13
2022-12-24T08:56:12.498Z,95989.25
2022-12-24T08:58:38.959Z,95998.50
2022-12-24T09:01:12.597Z,95991.72
2022-12-24T09:03:39.186Z,95992.31
2022-12-24T09:06:05.938Z,95998.09
2022-12-24T09:08:32.697Z,95991.13
2022-12-24T09:11:05.961Z,96003.56
2022-12-24T09:13:33.222Z,96003.66
2022-12-24T09:15:59.683Z,96010.41
2022-12-24T09:18:26.286Z,95995.19
2022-12-24T09:20:57.233Z,96000.63
2022-12-24T09:23:24.113Z,96000.63
2022-12-24T09:25:50.578Z,95715.56
2022-12-24T09:28:17.098Z,96000.34
2022-12-24T09:30:43.578Z,95999.88
2022-12-24T09:33:10.088Z,96001.75
2022-12-24T09:35:39.702Z,96018.84
2022-12-24T09:38:06.188Z,96021.16
2022-12-24T09:40:36.663Z,96023.94
2022-12-24T09:43:04.159Z,96023.22
2022-12-24T09:45:31.649Z,96034.28
2022-12-24T09:47:59.743Z,96019.78
2022-12-24T09:50:31.536Z,96034.31
2022-12-24T09:52:58.512Z,96022.53
2022-12-24T09:55:32.720Z,96017.28
2022-12-24T09:57:59.571Z,96026.25
2022-12-24T10:00:27.198Z,96030.66
2022-12-24T10:02:53.775Z,96038.88
2022-12-24T10:05:24.710Z,96040.00
2022-12-24T10:07:54.143Z,96029.78
2022-12-24T10:10:23.856Z,96039.44
2022-12-24T10:12:50.341Z,96041.97
2022-12-24T10:15:16.774Z,96050.16
2022-12-24T10:17:49.491Z,96058.72
2022-12-24T10:20:25.038Z,96055.41
2022-12-24T10:23:10.503Z,96039.72
2022-12-24T10:25:52.566Z,96036.63
2022-12-24T10:28:19.895Z,96047.38
2022-12-24T10:30:48.476Z,96051.09
2022-12-24T10:33:17.329Z,96052.19
2022-12-24T10:35:45.232Z,96066.16
2022-12-24T10:38:11.765Z,96072.03
2022-12-24T10:40:39.856Z,96081.13
2022-12-24T10:43:17.053Z,96077.66
2022-12-24T10:45:44.733Z,96077.91
2022-12-24T10:48:12.886Z,96088.13
2022-12-24T10:50:56.809Z,96089.59
2022-12-24T10:53:41.942Z,96101.25
2022-12-24T10:56:09.634Z,96092.88
2022-12-24T10:58:36.099Z,96109.03
2022-12-24T11:01:03.040Z,96106.78
2022-12-24T11:03:33.645Z,96114.56
2022-12-24T11:06:22.961Z,96122.63
2022-12-24T11:08:49.453Z,96119.38
2022-12-24T11:11:16.868Z,96128.94
2022-12-24T11:13:47.181Z,96125.38
2022-12-24T11:16:22.854Z,96116.81
2022-12-24T11:18:56.166Z,96124.91
2022-12-24T11:21:25.784Z,96129.00
2022-12-24T11:23:58.966Z,96134.53
2022-12-24T11:26:26.531Z,96137.63
2022-12-24T11:29:22.557Z,96153.78
2022-12-24T11:31:49.753Z,96155.97
2022-12-24T11:34:22.622Z,96164.06
2022-12-24T11:36:49.783Z,96163.56
2022-12-24T11:39:23.266Z,96166.78
2022-12-24T11:41:51.181Z,96164.03
2022-12-24T11:44:23.710Z,96160.94
2022-12-24T11:46:53.106Z,96178.09
2022-12-24T11:49:23.877Z,96185.16
2022-12-24T11:52:09.212Z,96187.44
2022-12-24T11:54:47.039Z,96186.59
2022-12-24T11:57:13.787Z,96190.41
2022-12-24T11:59:41.306Z,96191.19
2022-12-24T12:02:17.545Z,96191.66
2022-12-24T12:04:44.480Z,96191.16
2022-12-24T12:07:15.802Z,96191.63
2022-12-24T12:09:43.525Z,96197.63
2022-12-24T12:12:12.510Z,96205.38
2022-12-24T12:14:58.765Z,96204.28
2022-12-24T12:17:43.977Z,96207.09
2022-12-24T12:20:13.549Z,96212.13
2022-12-24T12:23:09.344Z,96210.22
2022-12-24T12:25:46.712Z,96214.13
2022-12-24T12:28:23.355Z,96226.91
2022-12-24T12:30:54.378Z,96232.38
2022-12-24T12:33:30.835Z,96237.34
2022-12-24T12:35:57.308Z,96234.41
2022-12-24T12:38:24.908Z,96239.09
2022-12-24T12:40:57.522Z,96244.06
2022-12-24T12:43:50.478Z,96250.97
2022-12-24T12:46:21.455Z,96258.34
2022-12-24T12:49:02.532Z,96258.09
2022-12-24T12:51:36.506Z,96270.84
2022-12-24T12:54:12.103Z,96263.41
2022-12-24T12:56:39.866Z,96269.38
2022-12-24T12:59:15.494Z,96271.97
2022-12-24T13:01:51.163Z,96285.06
2022-12-24T13:04:20.761Z,96286.00
2022-12-24T13:06:53.383Z,96285.88
2022-12-24T13:09:23.408Z,96283.41
2022-12-24T13:11:50.293Z,96283.78
2022-12-24T13:14:32.295Z,96290.22
2022-12-24T13:17:07.975Z,96293.75
2022-12-24T13:19:47.976Z,96294.06
2022-12-24T13:22:15.180Z,96300.66
2022-12-24T13:24:46.439Z,96294.28
2022-12-24T13:27:17.881Z,96299.25
2022-12-24T13:29:44.388Z,96296.66
2022-12-24T13:32:20.123Z,96304.19
2022-12-24T13:34:50.431Z,96308.56
2022-12-24T13:37:20.936Z,96311.69
2022-12-24T13:40:02.955Z,96314.34
2022-12-24T13:42:48.303Z,96320.91
2022-12-24T13:45:33.021Z,96325.69
2022-12-24T13:48:05.709Z,96331.69
2022-12-24T13:50:35.174Z,96340.53
2022-12-24T13:53:01.598Z,96331.97
2022-12-24T13:55:28.034Z,96339.72
2022-12-24T13:57:57.298Z,96334.84
2022-12-24T14:00:40.180Z,96330.91
2022-12-24T14:03:09.703Z,96333.66
2022-12-24T14:05:40.454Z,96319.25
2022-12-24T14:08:08.431Z,96324.69
2022-12-24T14:10:42.382Z,96333.84
2022-12-24T14:13:29.073Z,96332.66
2022-12-24T14:15:55.619Z,96346.94
2022-12-24T14:18:22.904Z,96351.22
2022-12-24T14:20:50.038Z,96355.59
2022-12-24T14:23:26.013Z,96348.72
2022-12-24T14:25:52.440Z,96353.47
2022-12-24T14:28:19.608Z,96366.66
2022-12-24T14:30:46.084Z,96379.97
2022-12-24T14:33:28.453Z,96364.91
2022-12-24T14:35:54.933Z,96372.13
2022-12-24T14:38:23.007Z,96376.34
2022-12-24T14:41:09.794Z,96377.44
2022-12-24T14:43:42.322Z,96379.09
2022-12-24T14:46:32.173Z,96384.78
2022-12-24T14:49:08.012Z,96395.78
2022-12-24T14:51:34.451Z,96398.91
2022-12-24T14:54:03.876Z,96404.47
2022-12-24T14:56:30.395Z,96412.63
2022-12-24T14:58:59.102Z,96411.00
2022-12-24T15:01:26.410Z,96412.34
2022-12-24T15:04:11.285Z,96418.72
2022-12-24T15:06:38.485Z,96411.38
2022-12-24T15:09:05.004Z,96415.06
2022-12-24T15:11:31.505Z,96418.56
2022-12-24T15:13:58.378Z,96428.19
2022-12-24T15:16:28.548Z,96429.41
2022-12-24T15:19:01.756Z,96422.78
2022-12-24T15:21:35.363Z,96427.94
2022-12-24T15:24:01.800Z,96423.44
2022-12-24T15:26:29.215Z,96436.06
2022-12-24T15:29:02.376Z,96445.56
2022-12-24T15:31:30.178Z,96442.97
2022-12-24T15:33:56.883Z,96453.00
2022-12-24T15:36:26.471Z,96453.75
2022-12-24T15:38:53.990Z,96455.25
2022-12-24T15:41:21.143Z,96463.34
2022-12-24T15:43:47.745Z,96467.16
2022-12-24T15:46:21.192Z,96464.16
2022-12-24T15:48:48.055Z,96469.44
2022-12-24T15:51:16.813Z,96469.44
2022-12-24T15:53:43.872Z,96474.03
2022-12-24T15:56:14.076Z,96470.78
2022-12-24T15:58:41.430Z,96473.59
2022-12-24T16:01:14.313Z,96477.25
2022-12-24T16:03:41.611Z,96483.84
2022-12-24T16:06:08.757Z,96484.44
2022-12-24T16:08:35.661Z,96489.06
2022-12-24T16:11:08.291Z,96488.72
2022-12-24T16:13:35.573Z,96488.31
2022-12-24T16:16:03.341Z,96488.56
2022-12-24T16:18:37.133Z,96498.28
2022-12-24T16:21:03.675Z,96506.25
2022-12-24T16:23:40.198Z,96509.06
2022-12-24T16:26:06.658Z,96512.84
2022-12-24T16:28:33.100Z,96512.03
2022-12-24T16:30:59.572Z,96509.47
2022-12-24T16:33:26.099Z,96512.16
2022-12-24T16:35:52.617Z,96510.28
2022-12-24T16:38:19.109Z,96513.81
2022-12-24T16:40:45.566Z,96510.38
2022-12-24T16:43:30.792Z,96514.72
2022-12-24T16:46:04.162Z,96521.06
2022-12-24T16:48:30.763Z,96534.16
2022-12-24T16:50:57.425Z,96530.19
2022-12-24T16:53:23.927Z,96537.59
2022-12-24T16:55:51.593Z,96542.88
2022-12-24T16:58:18.177Z,96539.72
2022-12-24T17:00:44.988Z,96546.63
2022-12-24T17:03:11.833Z,96558.56
2022-12-24T17:05:38.900Z,96569.69
2022-12-24T17:08:05.512Z,96580.66
2022-12-24T17:10:31.971Z,96575.50
2022-12-24T17:12:58.386Z,96574.69
2022-12-24T17:15:24.814Z,96580.53
2022-12-24T17:17:51.345Z,96587.28
2022-12-24T17:20:23.810Z,96583.69
2022-12-24T17:22:50.891Z,96587.66
2022-12-24T17:25:17.335Z,96584.63
2022-12-24T17:27:43.777Z,96585.44
2022-12-24T17:30:10.364Z,96588.00
2022-12-24T17:32:37.581Z,96595.81
2022-12-24T17:35:04.274Z,96587.28
2022-12-24T17:37:30.828Z,96595.97
2022-12-24T17:39:57.413Z,96595.00
2022-12-24T17:42:23.901Z,96511.72
2022-12-24T17:44:50.344Z,96588.09
2022-12-24T17:47:17.093Z,96592.44
2022-12-24T17:49:43.552Z,96608.81
2022-12-24T17:52:10.112Z,96609.63
2022-12-24T17:54:36.598Z,96612.91
2022-12-24T17:57:03.060Z,96617.47
2022-12-24T17:59:29.494Z,96610.72
2022-12-24T18:01:56.047Z,96615.84
2022-12-24T18:04:22.686Z,96616.88
2022-12-24T18:06:49.934Z,96618.66
2022-12-24T18:09:16.677Z,96623.78
2022-12-24T18:11:43.122Z,96620.53
2022-12-24T18:14:10.466Z,96622.28
2022-12-24T18:16:37.682Z,96631.50
2022-12-24T18:19:04.479Z,96629.19
2022-12-24T18:21:31.426Z,96621.03
2022-12-24T18:23:57.998Z,96619.63
2022-12-24T18:26:28.243Z,96618.25
2022-12-24T18:28:55.713Z,96620.34
2022-12-24T18:31:22.304Z,96613.81
2022-12-24T18:33:49.096Z,96615.56
2022-12-24T18:36:15.754Z,96615.69
2022-12-24T18:38:42.195Z,96622.59
2022-12-24T18:41:09.675Z,96621.78
2022-12-24T18:43:36.127Z,96620.38
2022-12-24T18:46:15.948Z,96630.06
2022-12-24T18:48:42.524Z,96624.09
2022-12-24T18:51:09.313Z,96630.06
2022-12-24T18:53:35.803Z,96631.94
2022-12-24T18:56:10.775Z,96637.19
2022-12-24T18:58:42.220Z,96637.28
2022-12-24T19:01:15.796Z,96641.88
2022-12-24T19:03:42.529Z,96643.97
2022-12-24T19:06:09.167Z,96659.03
2022-12-24T19:11:22.410Z,96660.44
2022-12-24T19:13:48.942Z,96656.94
2022-12-24T19:16:15.702Z,96664.66
2022-12-24T19:18:42.208Z,96667.31
2022-12-24T19:21:09.689Z,96668.16
2022-12-24T19:23:36.134Z,96664.75
2022-12-24T19:26:02.625Z,96670.00
2022-12-24T19:28:32.213Z,96664.75
2022-12-24T19:31:05.623Z,96675.03
2022-12-24T19:33:41.980Z,96673.38
2022-12-24T19:36:09.799Z,96682.84
2022-12-24T19:38:36.592Z,96691.50
2022-12-24T19:41:22.180Z,96685.53
2022-12-24T19:43:49.561Z,96692.44
2022-12-24T19:46:17.457Z,96686.56
2022-12-24T19:48:44.359Z,96678.06
2022-12-24T19:51:11.300Z,96692.66
2022-12-24T19:53:37.805Z,96689.28
2022-12-24T19:56:04.412Z,96692.78
2022-12-24T19:58:32.802Z,96702.94
2022-12-24T20:01:09.705Z,96709.69
2022-12-24T20:03:41.144Z,96708.06
2022-12-24T20:06:08.632Z,96707.25
2022-12-24T20:08:35.844Z,96703.88
2022-12-24T20:11:06.685Z,96718.34
2022-12-24T20:13:36.622Z,96709.13
2022-12-24T20:16:07.001Z,96726.41
2022-12-24T20:18:33.691Z,96722.78
2022-12-24T20:21:03.786Z,96718.22
2022-12-24T20:23:30.380Z,96711.66
2022-12-24T20:25:58.344Z,96704.09
2022-12-24T20:28:25.568Z,96701.41
2022-12-24T20:30:52.128Z,96702.22
2022-12-24T20:33:18.659Z,96712.63
2022-12-24T20:35:45.250Z,96718.69
2022-12-24T20:38:11.732Z,96721.25
2022-12-24T20:40:41.638Z,96718.78
2022-12-24T20:43:08.123Z,96720.53
2022-12-24T20:45:36.817Z,96711.88
2022-12-24T20:48:03.574Z,96720.31
2022-12-24T20:50:30.084Z,96726.16
2022-12-24T20:52:56.606Z,96733.16
2022-12-24T20:55:23.083Z,96731.41
2022-12-24T20:57:49.831Z,96728.84
2022-12-24T21:00:16.827Z,96735.59
2022-12-24T21:02:43.425Z,96728.72
2022-12-24T21:05:10.059Z,96732.09
2022-12-24T21:07:39.026Z,96736.44
2022-12-24T21:10:06.689Z,96735.72
2022-12-24T21:12:51.842Z,96741.00
2022-12-24T21:15:22.135Z,96744.09
2022-12-24T21:17:48.647Z,96733.25
2022-12-24T21:20:15.634Z,96738.59
2022-12-24T21:22:42.404Z,96734.50
2022-12-24T21:25:09.064Z,96737.28
2022-12-24T21:27:35.635Z,96739.97
2022-12-24T21:30:02.422Z,96731.34
2022-12-24T21:32:28.892Z,96735.53
2022-12-24T21:34:55.409Z,96732.84
2022-12-24T21:37:21.895Z,96726.69
2022-12-24T21:39:48.434Z,96730.06
2022-12-24T21:42:14.988Z,96732.53
2022-12-24T21:44:41.468Z,96729.25
2022-12-24T21:47:08.082Z,96744.06
2022-12-24T21:49:53.398Z,96742.66
2022-12-24T21:52:19.831Z,96741.44
2022-12-24T21:54:46.284Z,96737.31
2022-12-24T21:57:31.581Z,96737.25
2022-12-24T22:00:18.157Z,96750.53
2022-12-24T22:02:44.905Z,96754.34
2022-12-24T22:05:11.593Z,96746.44
2022-12-24T22:07:57.692Z,96749.44
2022-12-24T22:10:42.861Z,96757.50
2022-12-24T22:13:09.844Z,96760.97
2022-12-24T22:15:36.777Z,96772.88
2022-12-24T22:18:03.414Z,96769.50
2022-12-24T22:20:29.929Z,96762.50
2022-12-24T22:22:56.441Z,96772.66
2022-12-24T22:25:22.882Z,96769.16
2022-12-24T22:27:49.430Z,96770.19
2022-12-24T22:30:15.995Z,96768.56
2022-12-24T22:32:42.779Z,96772.16
2022-12-24T22:35:09.444Z,96784.38
2022-12-24T22:37:35.981Z,96777.19
2022-12-24T22:40:02.620Z,96774.34
2022-12-24T22:42:32.944Z,96774.38
2022-12-24T22:45:00.932Z,96777.66
2022-12-24T22:47:27.495Z,96767.94
2022-12-24T22:49:53.992Z,96771.72
2022-12-24T22:52:20.423Z,96776.22
2022-12-24T22:54:46.871Z,96763.00
2022-12-24T22:57:13.323Z,96783.09
2022-12-24T22:59:39.989Z,96778.47
2022-12-24T23:02:06.873Z,96786.34
2022-12-24T23:04:37.014Z,96783.09
2022-12-24T23:07:03.775Z,96778.97
2022-12-24T23:09:30.271Z,96778.34
2022-12-24T23:11:56.730Z,96782.03
2022-12-24T23:14:41.870Z,96789.00
2022-12-24T23:17:08.532Z,96783.97
2022-12-24T23:19:34.956Z,96791.66
2022-12-24T23:22:01.573Z,96800.25
2022-12-24T23:24:28.084Z,96803.09
2022-12-24T23:26:55.038Z,96724.03
2022-12-24T23:29:21.475Z,96806.66
2022-12-24T23:31:48.029Z,96818.94
2022-12-24T23:34:14.518Z,96819.22
2022-12-24T23:36:41.411Z,96822.88
2022-12-24T23:39:07.895Z,96827.19
2022-12-24T23:41:34.319Z,96826.19
2022-12-24T23:44:00.777Z,96821.69
2022-12-24T23:46:27.439Z,96822.31
2022-12-24T23:48:54.760Z,96829.59
2022-12-24T23:51:23.616Z,96828.50
2022-12-24T23:53:50.707Z,96823.28
2022-12-24T23:56:17.152Z,96822.25
2022-12-24T23:58:44.070Z,96819.69
